Terminal Aerodrome Forecast
Issued by NWS Albuquerque, NM

Home | Current Version | Previous Version | Text Only | Print | Product List | Glossary On
Versions: 1 2 3 4 5 6 7 8 9 10 11 12 13 14
000
FTUS45 KABQ 161700
TAFABQ
TAF
KABQ 161735Z 1618/1718 20006KT P6SM SCT045 BKN120
      TEMPO 1618/1621 BKN045 BKN100
     FM162100 18007KT P6SM VCSH BKN050 BKN090
     FM170000 13006KT P6SM VCTS BKN045CB BKN070
     FM170800 11006KT P6SM BKN035 BKN060=

USA.gov is the U.S. government's official web portal to all federal, state and local government web resources and services.